sensor_id;sensor_type;location;lat;lon;timestamp;pressure;altitude;pressure_sealevel;temperature
12061;BMP180;6091;51.432;6.880;2024-01-27T00:00:34;102654.00;;;23.30
12061;BMP180;6091;51.432;6.880;2024-01-27T00:03:01;102657.00;;;23.20
12061;BMP180;6091;51.432;6.880;2024-01-27T00:05:29;102662.00;;;23.20
12061;BMP180;6091;51.432;6.880;2024-01-27T00:07:57;102660.00;;;23.20
12061;BMP180;6091;51.432;6.880;2024-01-27T00:10:25;102662.00;;;23.20
12061;BMP180;6091;51.432;6.880;2024-01-27T00:12:52;102664.00;;;23.20
12061;BMP180;6091;51.432;6.880;2024-01-27T00:15:19;102668.00;;;23.20
12061;BMP180;6091;51.432;6.880;2024-01-27T00:17:46;102671.00;;;23.20
12061;BMP180;6091;51.432;6.880;2024-01-27T00:20:14;102655.00;;;23.20
12061;BMP180;6091;51.432;6.880;2024-01-27T00:22:41;102659.00;;;23.20
12061;BMP180;6091;51.432;6.880;2024-01-27T00:25:09;102664.00;;;23.20
12061;BMP180;6091;51.432;6.880;2024-01-27T00:27:36;102664.00;;;23.10
12061;BMP180;6091;51.432;6.880;2024-01-27T00:30:05;102676.00;;;23.10
12061;BMP180;6091;51.432;6.880;2024-01-27T00:32:32;102686.00;;;23.10
12061;BMP180;6091;51.432;6.880;2024-01-27T00:35:03;102680.00;;;23.10
12061;BMP180;6091;51.432;6.880;2024-01-27T00:37:30;102683.00;;;23.10
12061;BMP180;6091;51.432;6.880;2024-01-27T00:39:57;102682.00;;;23.10
12061;BMP180;6091;51.432;6.880;2024-01-27T00:42:25;102686.00;;;23.10
12061;BMP180;6091;51.432;6.880;2024-01-27T00:44:52;102687.00;;;23.10
12061;BMP180;6091;51.432;6.880;2024-01-27T00:47:19;102678.00;;;23.10
12061;BMP180;6091;51.432;6.880;2024-01-27T00:49:46;102685.00;;;23.10
12061;BMP180;6091;51.432;6.880;2024-01-27T00:52:14;102693.00;;;23.10
12061;BMP180;6091;51.432;6.880;2024-01-27T00:54:41;102693.00;;;23.00
12061;BMP180;6091;51.432;6.880;2024-01-27T00:57:09;102698.00;;;23.00
12061;BMP180;6091;51.432;6.880;2024-01-27T00:59:36;102705.00;;;23.00
12061;BMP180;6091;51.432;6.880;2024-01-27T01:02:04;102704.00;;;23.00
12061;BMP180;6091;51.432;6.880;2024-01-27T01:04:31;102701.00;;;23.00
12061;BMP180;6091;51.432;6.880;2024-01-27T01:06:59;102695.00;;;23.00
12061;BMP180;6091;51.432;6.880;2024-01-27T01:09:26;102697.00;;;23.00
12061;BMP180;6091;51.432;6.880;2024-01-27T01:11:53;102700.00;;;23.00
12061;BMP180;6091;51.432;6.880;2024-01-27T01:14:21;102707.00;;;23.00
12061;BMP180;6091;51.432;6.880;2024-01-27T01:16:49;102692.00;;;23.00
12061;BMP180;6091;51.432;6.880;2024-01-27T01:19:16;102699.00;;;22.90
12061;BMP180;6091;51.432;6.880;2024-01-27T01:21:44;102695.00;;;22.90
12061;BMP180;6091;51.432;6.880;2024-01-27T01:24:11;102691.00;;;22.90
12061;BMP180;6091;51.432;6.880;2024-01-27T01:26:38;102693.00;;;22.90
12061;BMP180;6091;51.432;6.880;2024-01-27T01:29:07;102698.00;;;22.90
12061;BMP180;6091;51.432;6.880;2024-01-27T01:31:34;102691.00;;;22.90
12061;BMP180;6091;51.432;6.880;2024-01-27T01:34:01;102704.00;;;22.90
12061;BMP180;6091;51.432;6.880;2024-01-27T01:36:29;102697.00;;;22.90
12061;BMP180;6091;51.432;6.880;2024-01-27T01:38:57;102701.00;;;22.90
12061;BMP180;6091;51.432;6.880;2024-01-27T01:41:24;102696.00;;;22.90
12061;BMP180;6091;51.432;6.880;2024-01-27T01:43:51;102703.00;;;22.90
12061;BMP180;6091;51.432;6.880;2024-01-27T01:46:18;102706.00;;;22.80
12061;BMP180;6091;51.432;6.880;2024-01-27T01:48:46;102701.00;;;22.80
12061;BMP180;6091;51.432;6.880;2024-01-27T01:51:14;102707.00;;;22.80
12061;BMP180;6091;51.432;6.880;2024-01-27T01:53:42;102709.00;;;22.80
12061;BMP180;6091;51.432;6.880;2024-01-27T01:56:09;102716.00;;;22.80
12061;BMP180;6091;51.432;6.880;2024-01-27T01:58:36;102700.00;;;22.80
12061;BMP180;6091;51.432;6.880;2024-01-27T02:01:04;102702.00;;;22.80
12061;BMP180;6091;51.432;6.880;2024-01-27T02:03:31;102709.00;;;22.80
12061;BMP180;6091;51.432;6.880;2024-01-27T02:05:58;102707.00;;;22.80
12061;BMP180;6091;51.432;6.880;2024-01-27T02:08:25;102717.00;;;22.80
12061;BMP180;6091;51.432;6.880;2024-01-27T02:10:53;102710.00;;;22.80
12061;BMP180;6091;51.432;6.880;2024-01-27T02:13:22;102702.00;;;22.80
12061;BMP180;6091;51.432;6.880;2024-01-27T02:15:50;102702.00;;;22.80
12061;BMP180;6091;51.432;6.880;2024-01-27T02:18:18;102704.00;;;22.70
12061;BMP180;6091;51.432;6.880;2024-01-27T02:20:45;102710.00;;;22.70
12061;BMP180;6091;51.432;6.880;2024-01-27T02:23:13;102705.00;;;22.70
12061;BMP180;6091;51.432;6.880;2024-01-27T02:25:41;102708.00;;;22.70
12061;BMP180;6091;51.432;6.880;2024-01-27T02:28:08;102706.00;;;22.70
12061;BMP180;6091;51.432;6.880;2024-01-27T02:30:35;102710.00;;;22.70
12061;BMP180;6091;51.432;6.880;2024-01-27T02:33:02;102713.00;;;22.70
12061;BMP180;6091;51.432;6.880;2024-01-27T02:35:30;102707.00;;;22.70
12061;BMP180;6091;51.432;6.880;2024-01-27T02:37:57;102707.00;;;22.70
12061;BMP180;6091;51.432;6.880;2024-01-27T02:40:24;102706.00;;;22.60
12061;BMP180;6091;51.432;6.880;2024-01-27T02:42:53;102706.00;;;22.70
12061;BMP180;6091;51.432;6.880;2024-01-27T02:45:20;102699.00;;;22.60
12061;BMP180;6091;51.432;6.880;2024-01-27T02:47:47;102708.00;;;22.60
12061;BMP180;6091;51.432;6.880;2024-01-27T02:50:15;102704.00;;;22.60
12061;BMP180;6091;51.432;6.880;2024-01-27T02:52:42;102706.00;;;22.60
12061;BMP180;6091;51.432;6.880;2024-01-27T02:55:10;102705.00;;;22.60
12061;BMP180;6091;51.432;6.880;2024-01-27T02:57:37;102705.00;;;22.60
12061;BMP180;6091;51.432;6.880;2024-01-27T03:00:04;102707.00;;;22.60
12061;BMP180;6091;51.432;6.880;2024-01-27T03:02:32;102712.00;;;22.60
12061;BMP180;6091;51.432;6.880;2024-01-27T03:05:00;102711.00;;;22.60
12061;BMP180;6091;51.432;6.880;2024-01-27T03:07:28;102715.00;;;22.60
12061;BMP180;6091;51.432;6.880;2024-01-27T03:09:55;102718.00;;;22.60
12061;BMP180;6091;51.432;6.880;2024-01-27T03:12:22;102718.00;;;22.60
12061;BMP180;6091;51.432;6.880;2024-01-27T03:14:50;102712.00;;;22.50
12061;BMP180;6091;51.432;6.880;2024-01-27T03:17:18;102715.00;;;22.50
12061;BMP180;6091;51.432;6.880;2024-01-27T03:19:45;102724.00;;;22.50
12061;BMP180;6091;51.432;6.880;2024-01-27T03:22:15;102711.00;;;22.50
12061;BMP180;6091;51.432;6.880;2024-01-27T03:24:42;102706.00;;;22.50
12061;BMP180;6091;51.432;6.880;2024-01-27T03:27:09;102710.00;;;22.50
12061;BMP180;6091;51.432;6.880;2024-01-27T03:29:37;102708.00;;;22.50
12061;BMP180;6091;51.432;6.880;2024-01-27T03:32:04;102704.00;;;22.50
12061;BMP180;6091;51.432;6.880;2024-01-27T03:34:32;102711.00;;;22.50
12061;BMP180;6091;51.432;6.880;2024-01-27T03:37:00;102710.00;;;22.50
12061;BMP180;6091;51.432;6.880;2024-01-27T03:39:27;102717.00;;;22.50
12061;BMP180;6091;51.432;6.880;2024-01-27T03:41:54;102722.00;;;22.50
12061;BMP180;6091;51.432;6.880;2024-01-27T03:44:21;102721.00;;;22.50
12061;BMP180;6091;51.432;6.880;2024-01-27T03:46:48;102729.00;;;22.40
12061;BMP180;6091;51.432;6.880;2024-01-27T03:49:15;102729.00;;;22.40
12061;BMP180;6091;51.432;6.880;2024-01-27T03:51:43;102720.00;;;22.40
12061;BMP180;6091;51.432;6.880;2024-01-27T03:54:11;102721.00;;;22.40
12061;BMP180;6091;51.432;6.880;2024-01-27T03:56:41;102720.00;;;22.40
12061;BMP180;6091;51.432;6.880;2024-01-27T03:59:08;102720.00;;;22.40
12061;BMP180;6091;51.432;6.880;2024-01-27T04:01:47;102723.00;;;22.40
12061;BMP180;6091;51.432;6.880;2024-01-27T04:04:16;102726.00;;;22.40
12061;BMP180;6091;51.432;6.880;2024-01-27T04:06:43;102743.00;;;22.40
12061;BMP180;6091;51.432;6.880;2024-01-27T04:09:11;102739.00;;;22.40
12061;BMP180;6091;51.432;6.880;2024-01-27T04:11:38;102741.00;;;22.40
12061;BMP180;6091;51.432;6.880;2024-01-27T04:14:07;102736.00;;;22.40
12061;BMP180;6091;51.432;6.880;2024-01-27T04:16:34;102735.00;;;22.30
12061;BMP180;6091;51.432;6.880;2024-01-27T04:19:02;102736.00;;;22.30
12061;BMP180;6091;51.432;6.880;2024-01-27T04:21:29;102732.00;;;22.30
12061;BMP180;6091;51.432;6.880;2024-01-27T04:23:56;102741.00;;;22.30
12061;BMP180;6091;51.432;6.880;2024-01-27T04:26:23;102737.00;;;22.30
12061;BMP180;6091;51.432;6.880;2024-01-27T04:28:52;102736.00;;;22.30
12061;BMP180;6091;51.432;6.880;2024-01-27T04:31:19;102740.00;;;22.30
12061;BMP180;6091;51.432;6.880;2024-01-27T04:33:46;102743.00;;;22.30
12061;BMP180;6091;51.432;6.880;2024-01-27T04:36:13;102742.00;;;22.30
12061;BMP180;6091;51.432;6.880;2024-01-27T04:38:43;102744.00;;;22.30
12061;BMP180;6091;51.432;6.880;2024-01-27T04:41:10;102739.00;;;22.30
12061;BMP180;6091;51.432;6.880;2024-01-27T04:43:37;102738.00;;;22.30
12061;BMP180;6091;51.432;6.880;2024-01-27T04:46:14;102736.00;;;22.30
12061;BMP180;6091;51.432;6.880;2024-01-27T04:48:46;102729.00;;;22.20
12061;BMP180;6091;51.432;6.880;2024-01-27T04:51:19;102740.00;;;22.20
12061;BMP180;6091;51.432;6.880;2024-01-27T04:53:47;102736.00;;;22.20
12061;BMP180;6091;51.432;6.880;2024-01-27T04:56:14;102725.00;;;22.20
12061;BMP180;6091;51.432;6.880;2024-01-27T04:58:42;102732.00;;;22.20
12061;BMP180;6091;51.432;6.880;2024-01-27T05:01:10;102729.00;;;22.20
12061;BMP180;6091;51.432;6.880;2024-01-27T05:03:37;102732.00;;;22.20
12061;BMP180;6091;51.432;6.880;2024-01-27T05:06:08;102733.00;;;22.20
12061;BMP180;6091;51.432;6.880;2024-01-27T05:08:36;102734.00;;;22.20
12061;BMP180;6091;51.432;6.880;2024-01-27T05:11:04;102727.00;;;22.20
12061;BMP180;6091;51.432;6.880;2024-01-27T05:13:31;102737.00;;;22.20
12061;BMP180;6091;51.432;6.880;2024-01-27T05:15:59;102730.00;;;22.20
12061;BMP180;6091;51.432;6.880;2024-01-27T05:18:26;102728.00;;;22.20
12061;BMP180;6091;51.432;6.880;2024-01-27T05:20:53;102729.00;;;22.20
12061;BMP180;6091;51.432;6.880;2024-01-27T05:23:20;102716.00;;;22.20
12061;BMP180;6091;51.432;6.880;2024-01-27T05:25:47;102728.00;;;22.20
12061;BMP180;6091;51.432;6.880;2024-01-27T05:28:17;102728.00;;;22.20
12061;BMP180;6091;51.432;6.880;2024-01-27T05:30:44;102712.00;;;22.10
12061;BMP180;6091;51.432;6.880;2024-01-27T05:33:11;102723.00;;;22.10
12061;BMP180;6091;51.432;6.880;2024-01-27T05:35:39;102743.00;;;22.10
12061;BMP180;6091;51.432;6.880;2024-01-27T05:38:06;102718.00;;;22.10
12061;BMP180;6091;51.432;6.880;2024-01-27T05:40:33;102720.00;;;22.10
12061;BMP180;6091;51.432;6.880;2024-01-27T05:43:03;102736.00;;;22.10
12061;BMP180;6091;51.432;6.880;2024-01-27T05:45:30;102730.00;;;22.10
12061;BMP180;6091;51.432;6.880;2024-01-27T05:47:58;102731.00;;;22.10
12061;BMP180;6091;51.432;6.880;2024-01-27T05:50:26;102741.00;;;22.10
12061;BMP180;6091;51.432;6.880;2024-01-27T05:52:53;102739.00;;;22.10
12061;BMP180;6091;51.432;6.880;2024-01-27T05:55:21;102741.00;;;22.10
12061;BMP180;6091;51.432;6.880;2024-01-27T05:57:50;102737.00;;;22.10
12061;BMP180;6091;51.432;6.880;2024-01-27T06:00:17;102737.00;;;22.10
12061;BMP180;6091;51.432;6.880;2024-01-27T06:02:44;102741.00;;;22.10
12061;BMP180;6091;51.432;6.880;2024-01-27T06:05:11;102734.00;;;22.00
12061;BMP180;6091;51.432;6.880;2024-01-27T06:07:38;102736.00;;;22.00
12061;BMP180;6091;51.432;6.880;2024-01-27T06:10:09;102745.00;;;22.00
12061;BMP180;6091;51.432;6.880;2024-01-27T06:12:37;102744.00;;;22.00
12061;BMP180;6091;51.432;6.880;2024-01-27T06:15:05;102731.00;;;22.00
12061;BMP180;6091;51.432;6.880;2024-01-27T06:17:33;102742.00;;;22.00
12061;BMP180;6091;51.432;6.880;2024-01-27T06:20:00;102735.00;;;22.00
12061;BMP180;6091;51.432;6.880;2024-01-27T06:22:27;102751.00;;;22.00
12061;BMP180;6091;51.432;6.880;2024-01-27T06:24:54;102755.00;;;22.00
12061;BMP180;6091;51.432;6.880;2024-01-27T06:27:21;102747.00;;;22.00
12061;BMP180;6091;51.432;6.880;2024-01-27T06:29:49;102747.00;;;22.00
12061;BMP180;6091;51.432;6.880;2024-01-27T06:32:16;102744.00;;;22.00
12061;BMP180;6091;51.432;6.880;2024-01-27T06:34:43;102744.00;;;22.00
12061;BMP180;6091;51.432;6.880;2024-01-27T06:37:10;102741.00;;;22.00
12061;BMP180;6091;51.432;6.880;2024-01-27T06:39:37;102748.00;;;22.00
12061;BMP180;6091;51.432;6.880;2024-01-27T06:42:04;102743.00;;;22.00
12061;BMP180;6091;51.432;6.880;2024-01-27T06:44:31;102759.00;;;22.00
12061;BMP180;6091;51.432;6.880;2024-01-27T06:46:58;102762.00;;;22.00
12061;BMP180;6091;51.432;6.880;2024-01-27T06:49:25;102761.00;;;22.00
12061;BMP180;6091;51.432;6.880;2024-01-27T06:51:53;102768.00;;;22.00
12061;BMP180;6091;51.432;6.880;2024-01-27T06:54:20;102758.00;;;22.00
12061;BMP180;6091;51.432;6.880;2024-01-27T06:56:47;102771.00;;;21.90
12061;BMP180;6091;51.432;6.880;2024-01-27T06:59:14;102771.00;;;21.90
12061;BMP180;6091;51.432;6.880;2024-01-27T07:01:48;102770.00;;;21.90
12061;BMP180;6091;51.432;6.880;2024-01-27T07:04:15;102762.00;;;21.90
12061;BMP180;6091;51.432;6.880;2024-01-27T07:06:43;102768.00;;;21.90
12061;BMP180;6091;51.432;6.880;2024-01-27T07:09:11;102768.00;;;21.90
12061;BMP180;6091;51.432;6.880;2024-01-27T07:11:38;102776.00;;;21.90
12061;BMP180;6091;51.432;6.880;2024-01-27T07:14:06;102770.00;;;21.90
12061;BMP180;6091;51.432;6.880;2024-01-27T07:16:39;102771.00;;;21.90
12061;BMP180;6091;51.432;6.880;2024-01-27T07:19:06;102771.00;;;21.90
12061;BMP180;6091;51.432;6.880;2024-01-27T07:21:33;102778.00;;;21.90
12061;BMP180;6091;51.432;6.880;2024-01-27T07:24:00;102787.00;;;21.90
12061;BMP180;6091;51.432;6.880;2024-01-27T07:26:27;102780.00;;;21.90
12061;BMP180;6091;51.432;6.880;2024-01-27T07:28:54;102783.00;;;21.90
12061;BMP180;6091;51.432;6.880;2024-01-27T07:31:24;102772.00;;;21.90
12061;BMP180;6091;51.432;6.880;2024-01-27T07:33:53;102779.00;;;21.90
12061;BMP180;6091;51.432;6.880;2024-01-27T07:36:21;102782.00;;;21.90
12061;BMP180;6091;51.432;6.880;2024-01-27T07:38:48;102786.00;;;21.90
12061;BMP180;6091;51.432;6.880;2024-01-27T07:41:16;102795.00;;;21.90
12061;BMP180;6091;51.432;6.880;2024-01-27T07:43:44;102792.00;;;21.90
12061;BMP180;6091;51.432;6.880;2024-01-27T07:46:11;102789.00;;;21.90
12061;BMP180;6091;51.432;6.880;2024-01-27T07:48:38;102787.00;;;21.90
12061;BMP180;6091;51.432;6.880;2024-01-27T07:51:05;102790.00;;;21.90
12061;BMP180;6091;51.432;6.880;2024-01-27T07:53:34;102798.00;;;21.90
12061;BMP180;6091;51.432;6.880;2024-01-27T07:56:02;102795.00;;;21.90
12061;BMP180;6091;51.432;6.880;2024-01-27T07:58:33;102802.00;;;21.90
12061;BMP180;6091;51.432;6.880;2024-01-27T08:01:00;102801.00;;;21.90
12061;BMP180;6091;51.432;6.880;2024-01-27T08:03:28;102809.00;;;21.90
12061;BMP180;6091;51.432;6.880;2024-01-27T08:05:55;102815.00;;;21.90
12061;BMP180;6091;51.432;6.880;2024-01-27T08:08:23;102816.00;;;21.90
12061;BMP180;6091;51.432;6.880;2024-01-27T08:10:50;102810.00;;;21.90
12061;BMP180;6091;51.432;6.880;2024-01-27T08:13:17;102822.00;;;21.80
12061;BMP180;6091;51.432;6.880;2024-01-27T08:15:44;102816.00;;;21.80
12061;BMP180;6091;51.432;6.880;2024-01-27T08:18:11;102817.00;;;21.90
12061;BMP180;6091;51.432;6.880;2024-01-27T08:20:38;102822.00;;;21.90
12061;BMP180;6091;51.432;6.880;2024-01-27T08:23:06;102825.00;;;21.90
12061;BMP180;6091;51.432;6.880;2024-01-27T08:25:34;102822.00;;;21.90
12061;BMP180;6091;51.432;6.880;2024-01-27T08:28:02;102815.00;;;21.90
12061;BMP180;6091;51.432;6.880;2024-01-27T08:30:31;102813.00;;;21.90
12061;BMP180;6091;51.432;6.880;2024-01-27T08:32:58;102813.00;;;21.90
12061;BMP180;6091;51.432;6.880;2024-01-27T08:35:26;102820.00;;;21.90
12061;BMP180;6091;51.432;6.880;2024-01-27T08:37:53;102822.00;;;21.90
12061;BMP180;6091;51.432;6.880;2024-01-27T08:40:20;102820.00;;;21.90
12061;BMP180;6091;51.432;6.880;2024-01-27T08:42:47;102819.00;;;21.90
12061;BMP180;6091;51.432;6.880;2024-01-27T08:45:15;102826.00;;;21.90
12061;BMP180;6091;51.432;6.880;2024-01-27T08:47:42;102835.00;;;21.90
12061;BMP180;6091;51.432;6.880;2024-01-27T08:50:10;102836.00;;;21.90
12061;BMP180;6091;51.432;6.880;2024-01-27T08:52:37;102841.00;;;21.90
12061;BMP180;6091;51.432;6.880;2024-01-27T08:55:06;102840.00;;;21.90
12061;BMP180;6091;51.432;6.880;2024-01-27T08:57:33;102837.00;;;21.90
12061;BMP180;6091;51.432;6.880;2024-01-27T09:00:01;102833.00;;;21.90
12061;BMP180;6091;51.432;6.880;2024-01-27T09:02:32;102837.00;;;21.90
12061;BMP180;6091;51.432;6.880;2024-01-27T09:04:59;102830.00;;;21.90
12061;BMP180;6091;51.432;6.880;2024-01-27T09:07:29;102832.00;;;21.90
12061;BMP180;6091;51.432;6.880;2024-01-27T09:09:56;102838.00;;;21.90
12061;BMP180;6091;51.432;6.880;2024-01-27T09:12:23;102825.00;;;22.00
12061;BMP180;6091;51.432;6.880;2024-01-27T09:14:52;102824.00;;;22.00
12061;BMP180;6091;51.432;6.880;2024-01-27T09:17:21;102823.00;;;22.00
12061;BMP180;6091;51.432;6.880;2024-01-27T09:19:49;102823.00;;;22.00
12061;BMP180;6091;51.432;6.880;2024-01-27T09:22:17;102826.00;;;22.00
12061;BMP180;6091;51.432;6.880;2024-01-27T09:24:44;102833.00;;;22.00
12061;BMP180;6091;51.432;6.880;2024-01-27T09:27:11;102830.00;;;22.00
12061;BMP180;6091;51.432;6.880;2024-01-27T09:29:39;102832.00;;;22.00
12061;BMP180;6091;51.432;6.880;2024-01-27T09:32:06;102839.00;;;22.10
12061;BMP180;6091;51.432;6.880;2024-01-27T09:34:34;102833.00;;;22.10
12061;BMP180;6091;51.432;6.880;2024-01-27T09:37:02;102824.00;;;22.10
12061;BMP180;6091;51.432;6.880;2024-01-27T09:39:30;102818.00;;;22.00
12061;BMP180;6091;51.432;6.880;2024-01-27T09:42:00;102809.00;;;22.00
12061;BMP180;6091;51.432;6.880;2024-01-27T09:44:31;102816.00;;;22.00
12061;BMP180;6091;51.432;6.880;2024-01-27T09:46:58;102819.00;;;22.00
12061;BMP180;6091;51.432;6.880;2024-01-27T09:49:27;102806.00;;;21.90
12061;BMP180;6091;51.432;6.880;2024-01-27T09:51:54;102816.00;;;21.90
12061;BMP180;6091;51.432;6.880;2024-01-27T09:54:23;102814.00;;;22.00
12061;BMP180;6091;51.432;6.880;2024-01-27T09:56:53;102818.00;;;22.00
12061;BMP180;6091;51.432;6.880;2024-01-27T09:59:21;102818.00;;;22.00
12061;BMP180;6091;51.432;6.880;2024-01-27T10:01:52;102828.00;;;22.00
12061;BMP180;6091;51.432;6.880;2024-01-27T10:04:19;102821.00;;;22.10
12061;BMP180;6091;51.432;6.880;2024-01-27T10:06:49;102843.00;;;22.10
12061;BMP180;6091;51.432;6.880;2024-01-27T10:09:18;102843.00;;;22.20
12061;BMP180;6091;51.432;6.880;2024-01-27T10:11:47;102842.00;;;22.20
12061;BMP180;6091;51.432;6.880;2024-01-27T10:14:15;102843.00;;;22.30
12061;BMP180;6091;51.432;6.880;2024-01-27T10:16:45;102853.00;;;22.40
12061;BMP180;6091;51.432;6.880;2024-01-27T10:19:18;102849.00;;;22.40
12061;BMP180;6091;51.432;6.880;2024-01-27T10:21:47;102854.00;;;22.50
12061;BMP180;6091;51.432;6.880;2024-01-27T10:24:15;102854.00;;;22.60
12061;BMP180;6091;51.432;6.880;2024-01-27T10:26:43;102861.00;;;22.60
12061;BMP180;6091;51.432;6.880;2024-01-27T10:29:11;102864.00;;;22.70
12061;BMP180;6091;51.432;6.880;2024-01-27T10:31:38;102859.00;;;22.80
12061;BMP180;6091;51.432;6.880;2024-01-27T10:34:06;102871.00;;;22.80
12061;BMP180;6091;51.432;6.880;2024-01-27T10:36:44;102854.00;;;22.90
12061;BMP180;6091;51.432;6.880;2024-01-27T10:39:22;102859.00;;;23.00
12061;BMP180;6091;51.432;6.880;2024-01-27T10:41:51;102860.00;;;23.10
12061;BMP180;6091;51.432;6.880;2024-01-27T10:44:20;102852.00;;;23.20
12061;BMP180;6091;51.432;6.880;2024-01-27T10:46:49;102858.00;;;23.30
12061;BMP180;6091;51.432;6.880;2024-01-27T10:49:18;102858.00;;;23.50
12061;BMP180;6091;51.432;6.880;2024-01-27T10:54:24;102870.00;;;23.70
12061;BMP180;6091;51.432;6.880;2024-01-27T10:56:58;102863.00;;;23.90
12061;BMP180;6091;51.432;6.880;2024-01-27T10:59:30;102869.00;;;24.00
12061;BMP180;6091;51.432;6.880;2024-01-27T11:01:58;102868.00;;;24.20
12061;BMP180;6091;51.432;6.880;2024-01-27T11:04:27;102865.00;;;24.30
12061;BMP180;6091;51.432;6.880;2024-01-27T11:06:58;102861.00;;;24.50
12061;BMP180;6091;51.432;6.880;2024-01-27T11:09:26;102858.00;;;24.60
12061;BMP180;6091;51.432;6.880;2024-01-27T11:11:54;102867.00;;;24.80
12061;BMP180;6091;51.432;6.880;2024-01-27T11:14:22;102861.00;;;25.00
12061;BMP180;6091;51.432;6.880;2024-01-27T11:16:57;102877.00;;;25.20
12061;BMP180;6091;51.432;6.880;2024-01-27T11:19:24;102876.00;;;25.30
12061;BMP180;6091;51.432;6.880;2024-01-27T11:22:05;102876.00;;;25.60
12061;BMP180;6091;51.432;6.880;2024-01-27T11:24:34;102879.00;;;25.70
12061;BMP180;6091;51.432;6.880;2024-01-27T11:27:05;102877.00;;;25.90
12061;BMP180;6091;51.432;6.880;2024-01-27T11:29:35;102872.00;;;26.10
12061;BMP180;6091;51.432;6.880;2024-01-27T11:32:04;102871.00;;;26.20
12061;BMP180;6091;51.432;6.880;2024-01-27T11:34:43;102885.00;;;26.40
12061;BMP180;6091;51.432;6.880;2024-01-27T11:37:16;102885.00;;;26.60
12061;BMP180;6091;51.432;6.880;2024-01-27T11:39:44;102876.00;;;26.70
12061;BMP180;6091;51.432;6.880;2024-01-27T11:42:14;102865.00;;;26.90
12061;BMP180;6091;51.432;6.880;2024-01-27T11:44:42;102873.00;;;27.00
12061;BMP180;6091;51.432;6.880;2024-01-27T11:47:18;102881.00;;;27.10
12061;BMP180;6091;51.432;6.880;2024-01-27T11:49:55;102883.00;;;27.20
12061;BMP180;6091;51.432;6.880;2024-01-27T11:52:25;102886.00;;;27.30
12061;BMP180;6091;51.432;6.880;2024-01-27T11:55:00;102874.00;;;27.40
12061;BMP180;6091;51.432;6.880;2024-01-27T11:57:28;102882.00;;;27.50
12061;BMP180;6091;51.432;6.880;2024-01-27T11:59:56;102878.00;;;27.60
12061;BMP180;6091;51.432;6.880;2024-01-27T12:02:24;102871.00;;;27.70
12061;BMP180;6091;51.432;6.880;2024-01-27T12:04:52;102872.00;;;27.80
12061;BMP180;6091;51.432;6.880;2024-01-27T12:07:20;102869.00;;;27.90
12061;BMP180;6091;51.432;6.880;2024-01-27T12:09:51;102877.00;;;28.00
12061;BMP180;6091;51.432;6.880;2024-01-27T12:12:19;102874.00;;;28.10
12061;BMP180;6091;51.432;6.880;2024-01-27T12:14:51;102871.00;;;28.20
12061;BMP180;6091;51.432;6.880;2024-01-27T12:17:22;102868.00;;;28.20
12061;BMP180;6091;51.432;6.880;2024-01-27T12:19:52;102873.00;;;28.30
12061;BMP180;6091;51.432;6.880;2024-01-27T12:22:29;102875.00;;;28.40
12061;BMP180;6091;51.432;6.880;2024-01-27T12:25:10;102861.00;;;28.40
12061;BMP180;6091;51.432;6.880;2024-01-27T12:27:39;102863.00;;;28.40
12061;BMP180;6091;51.432;6.880;2024-01-27T12:30:09;102868.00;;;28.40
12061;BMP180;6091;51.432;6.880;2024-01-27T12:32:38;102873.00;;;28.40
12061;BMP180;6091;51.432;6.880;2024-01-27T12:35:07;102862.00;;;28.40
12061;BMP180;6091;51.432;6.880;2024-01-27T12:37:36;102872.00;;;28.40
12061;BMP180;6091;51.432;6.880;2024-01-27T12:40:18;102862.00;;;28.30
12061;BMP180;6091;51.432;6.880;2024-01-27T12:42:50;102853.00;;;28.20
12061;BMP180;6091;51.432;6.880;2024-01-27T12:45:18;102858.00;;;28.20
12061;BMP180;6091;51.432;6.880;2024-01-27T12:47:46;102860.00;;;28.10
12061;BMP180;6091;51.432;6.880;2024-01-27T12:50:14;102860.00;;;28.10
12061;BMP180;6091;51.432;6.880;2024-01-27T12:52:42;102861.00;;;28.00
12061;BMP180;6091;51.432;6.880;2024-01-27T12:55:09;102864.00;;;27.90
12061;BMP180;6091;51.432;6.880;2024-01-27T12:57:37;102859.00;;;27.80
12061;BMP180;6091;51.432;6.880;2024-01-27T13:00:06;102862.00;;;27.70
12061;BMP180;6091;51.432;6.880;2024-01-27T13:02:37;102865.00;;;27.60
12061;BMP180;6091;51.432;6.880;2024-01-27T13:05:06;102849.00;;;27.50
12061;BMP180;6091;51.432;6.880;2024-01-27T13:07:34;102852.00;;;27.30
12061;BMP180;6091;51.432;6.880;2024-01-27T13:10:02;102852.00;;;27.20
12061;BMP180;6091;51.432;6.880;2024-01-27T13:12:30;102855.00;;;27.10
12061;BMP180;6091;51.432;6.880;2024-01-27T13:14:59;102844.00;;;27.00
12061;BMP180;6091;51.432;6.880;2024-01-27T13:17:26;102840.00;;;26.90
12061;BMP180;6091;51.432;6.880;2024-01-27T13:19:54;102830.00;;;26.80
12061;BMP180;6091;51.432;6.880;2024-01-27T13:22:22;102831.00;;;26.80
12061;BMP180;6091;51.432;6.880;2024-01-27T13:24:53;102830.00;;;26.70
12061;BMP180;6091;51.432;6.880;2024-01-27T13:27:22;102826.00;;;26.60
12061;BMP180;6091;51.432;6.880;2024-01-27T13:29:49;102821.00;;;26.50
12061;BMP180;6091;51.432;6.880;2024-01-27T13:32:17;102833.00;;;26.50
12061;BMP180;6091;51.432;6.880;2024-01-27T13:34:44;102830.00;;;26.40
12061;BMP180;6091;51.432;6.880;2024-01-27T13:37:11;102826.00;;;26.30
12061;BMP180;6091;51.432;6.880;2024-01-27T13:39:39;102833.00;;;26.50
12061;BMP180;6091;51.432;6.880;2024-01-27T13:42:07;102826.00;;;26.30
12061;BMP180;6091;51.432;6.880;2024-01-27T13:44:35;102834.00;;;26.20
12061;BMP180;6091;51.432;6.880;2024-01-27T13:47:04;102832.00;;;26.10
12061;BMP180;6091;51.432;6.880;2024-01-27T13:49:32;102827.00;;;26.00
12061;BMP180;6091;51.432;6.880;2024-01-27T13:52:00;102826.00;;;26.00
12061;BMP180;6091;51.432;6.880;2024-01-27T13:54:32;102834.00;;;26.00
12061;BMP180;6091;51.432;6.880;2024-01-27T13:57:03;102831.00;;;25.90
12061;BMP180;6091;51.432;6.880;2024-01-27T13:59:31;102822.00;;;25.90
12061;BMP180;6091;51.432;6.880;2024-01-27T14:02:01;102817.00;;;25.90
12061;BMP180;6091;51.432;6.880;2024-01-27T14:04:29;102813.00;;;25.80
12061;BMP180;6091;51.432;6.880;2024-01-27T14:06:57;102806.00;;;25.80
12061;BMP180;6091;51.432;6.880;2024-01-27T14:09:25;102805.00;;;25.80
12061;BMP180;6091;51.432;6.880;2024-01-27T14:11:54;102809.00;;;25.80
12061;BMP180;6091;51.432;6.880;2024-01-27T14:14:24;102804.00;;;25.70
12061;BMP180;6091;51.432;6.880;2024-01-27T14:16:52;102801.00;;;25.70